sensor_id;sensor_type;location;lat;lon;timestamp;temperature;humidity
22544;DHT22;11438;52.044;8.716;2022-10-22T00:01:50;16.80;98.90
22544;DHT22;11438;52.044;8.716;2022-10-22T00:04:15;16.80;98.90
22544;DHT22;11438;52.044;8.716;2022-10-22T00:06:41;16.70;98.80
22544;DHT22;11438;52.044;8.716;2022-10-22T00:09:11;16.70;98.80
22544;DHT22;11438;52.044;8.716;2022-10-22T00:11:37;16.70;98.80
22544;DHT22;11438;52.044;8.716;2022-10-22T00:14:03;16.70;98.80
22544;DHT22;11438;52.044;8.716;2022-10-22T00:16:28;16.60;98.80
22544;DHT22;11438;52.044;8.716;2022-10-22T00:18:54;16.60;98.80
22544;DHT22;11438;52.044;8.716;2022-10-22T00:21:19;16.60;98.80
22544;DHT22;11438;52.044;8.716;2022-10-22T00:23:45;16.60;98.80
22544;DHT22;11438;52.044;8.716;2022-10-22T00:26:11;16.60;98.80
22544;DHT22;11438;52.044;8.716;2022-10-22T00:28:37;16.50;98.80
22544;DHT22;11438;52.044;8.716;2022-10-22T00:31:03;16.50;98.80
22544;DHT22;11438;52.044;8.716;2022-10-22T00:33:29;16.50;98.80
22544;DHT22;11438;52.044;8.716;2022-10-22T00:35:55;16.50;98.80
22544;DHT22;11438;52.044;8.716;2022-10-22T00:38:21;16.50;98.70
22544;DHT22;11438;52.044;8.716;2022-10-22T00:40:46;16.40;98.70
22544;DHT22;11438;52.044;8.716;2022-10-22T00:43:14;16.40;98.70
22544;DHT22;11438;52.044;8.716;2022-10-22T00:45:41;16.40;98.80
22544;DHT22;11438;52.044;8.716;2022-10-22T00:48:15;16.40;98.80
22544;DHT22;11438;52.044;8.716;2022-10-22T00:53:15;16.40;98.80
22544;DHT22;11438;52.044;8.716;2022-10-22T00:55:44;16.40;98.80
22544;DHT22;11438;52.044;8.716;2022-10-22T00:58:11;16.30;98.70
22544;DHT22;11438;52.044;8.716;2022-10-22T01:00:37;16.30;98.60
22544;DHT22;11438;52.044;8.716;2022-10-22T01:03:03;16.30;98.60
22544;DHT22;11438;52.044;8.716;2022-10-22T01:05:32;16.30;98.60
22544;DHT22;11438;52.044;8.716;2022-10-22T01:08:04;16.30;98.60
22544;DHT22;11438;52.044;8.716;2022-10-22T01:10:42;16.30;98.60
22544;DHT22;11438;52.044;8.716;2022-10-22T01:13:25;16.20;98.60
22544;DHT22;11438;52.044;8.716;2022-10-22T01:16:10;16.30;98.60
22544;DHT22;11438;52.044;8.716;2022-10-22T01:18:48;16.20;98.60
22544;DHT22;11438;52.044;8.716;2022-10-22T01:21:32;16.20;98.70
22544;DHT22;11438;52.044;8.716;2022-10-22T01:24:22;16.20;98.70
22544;DHT22;11438;52.044;8.716;2022-10-22T01:29:39;16.20;98.70
22544;DHT22;11438;52.044;8.716;2022-10-22T01:32:25;16.10;98.70
22544;DHT22;11438;52.044;8.716;2022-10-22T01:34:56;16.20;98.80
22544;DHT22;11438;52.044;8.716;2022-10-22T01:37:27;16.10;98.70
22544;DHT22;11438;52.044;8.716;2022-10-22T01:39:55;16.20;98.80
22544;DHT22;11438;52.044;8.716;2022-10-22T01:42:22;16.10;98.70
22544;DHT22;11438;52.044;8.716;2022-10-22T01:44:48;16.20;98.80
22544;DHT22;11438;52.044;8.716;2022-10-22T01:47:56;16.10;98.70
22544;DHT22;11438;52.044;8.716;2022-10-22T01:50:14;16.20;98.80
22544;DHT22;11438;52.044;8.716;2022-10-22T01:55:48;16.10;98.80
22544;DHT22;11438;52.044;8.716;2022-10-22T02:01:05;16.10;98.80
22544;DHT22;11438;52.044;8.716;2022-10-22T02:03:40;16.10;98.80
22544;DHT22;11438;52.044;8.716;2022-10-22T02:06:15;16.10;98.80
22544;DHT22;11438;52.044;8.716;2022-10-22T02:08:42;16.10;98.90
22544;DHT22;11438;52.044;8.716;2022-10-22T02:11:11;16.10;98.90
22544;DHT22;11438;52.044;8.716;2022-10-22T02:13:42;16.10;98.90
22544;DHT22;11438;52.044;8.716;2022-10-22T02:16:10;16.10;99.00
22544;DHT22;11438;52.044;8.716;2022-10-22T02:18:40;16.10;98.90
22544;DHT22;11438;52.044;8.716;2022-10-22T02:21:08;16.10;98.90
22544;DHT22;11438;52.044;8.716;2022-10-22T02:23:34;16.10;98.90
22544;DHT22;11438;52.044;8.716;2022-10-22T02:26:24;16.10;98.90
22544;DHT22;11438;52.044;8.716;2022-10-22T02:31:57;16.10;98.90
22544;DHT22;11438;52.044;8.716;2022-10-22T02:34:27;16.10;98.90
22544;DHT22;11438;52.044;8.716;2022-10-22T02:36:55;16.10;98.90
22544;DHT22;11438;52.044;8.716;2022-10-22T02:39:21;16.10;99.00
22544;DHT22;11438;52.044;8.716;2022-10-22T02:41:47;16.00;99.10
22544;DHT22;11438;52.044;8.716;2022-10-22T02:44:13;16.00;99.10
22544;DHT22;11438;52.044;8.716;2022-10-22T02:46:39;16.00;99.10
22544;DHT22;11438;52.044;8.716;2022-10-22T02:49:04;16.00;99.10
22544;DHT22;11438;52.044;8.716;2022-10-22T02:51:30;16.00;99.10
22544;DHT22;11438;52.044;8.716;2022-10-22T02:53:56;16.00;99.10
22544;DHT22;11438;52.044;8.716;2022-10-22T02:56:22;16.00;99.20
22544;DHT22;11438;52.044;8.716;2022-10-22T02:58:47;16.00;99.20
22544;DHT22;11438;52.044;8.716;2022-10-22T03:01:13;16.00;99.20
22544;DHT22;11438;52.044;8.716;2022-10-22T03:03:38;16.00;99.10
22544;DHT22;11438;52.044;8.716;2022-10-22T03:06:04;16.00;99.10
22544;DHT22;11438;52.044;8.716;2022-10-22T03:08:30;16.00;99.00
22544;DHT22;11438;52.044;8.716;2022-10-22T03:10:55;16.00;98.90
22544;DHT22;11438;52.044;8.716;2022-10-22T03:13:21;15.90;98.80
22544;DHT22;11438;52.044;8.716;2022-10-22T03:15:50;15.90;98.90
22544;DHT22;11438;52.044;8.716;2022-10-22T03:18:16;15.90;98.90
22544;DHT22;11438;52.044;8.716;2022-10-22T03:20:41;15.90;98.90
22544;DHT22;11438;52.044;8.716;2022-10-22T03:23:07;15.90;98.90
22544;DHT22;11438;52.044;8.716;2022-10-22T03:25:33;15.90;98.90
22544;DHT22;11438;52.044;8.716;2022-10-22T03:28:03;15.90;99.00
22544;DHT22;11438;52.044;8.716;2022-10-22T03:30:29;15.90;99.00
22544;DHT22;11438;52.044;8.716;2022-10-22T03:32:55;15.80;98.90
22544;DHT22;11438;52.044;8.716;2022-10-22T03:35:21;15.80;98.90
22544;DHT22;11438;52.044;8.716;2022-10-22T03:37:47;15.80;98.90
22544;DHT22;11438;52.044;8.716;2022-10-22T03:40:13;15.80;98.90
22544;DHT22;11438;52.044;8.716;2022-10-22T03:42:40;15.70;98.90
22544;DHT22;11438;52.044;8.716;2022-10-22T03:45:07;15.80;98.90
22544;DHT22;11438;52.044;8.716;2022-10-22T03:47:32;15.70;98.90
22544;DHT22;11438;52.044;8.716;2022-10-22T03:49:59;15.80;98.90
22544;DHT22;11438;52.044;8.716;2022-10-22T03:52:24;15.70;98.80
22544;DHT22;11438;52.044;8.716;2022-10-22T03:54:50;15.70;98.80
22544;DHT22;11438;52.044;8.716;2022-10-22T03:57:16;15.70;98.80
22544;DHT22;11438;52.044;8.716;2022-10-22T03:59:43;15.70;98.80
22544;DHT22;11438;52.044;8.716;2022-10-22T04:02:10;15.70;98.80
22544;DHT22;11438;52.044;8.716;2022-10-22T04:04:36;15.60;98.70
22544;DHT22;11438;52.044;8.716;2022-10-22T04:07:03;15.70;98.70
22544;DHT22;11438;52.044;8.716;2022-10-22T04:09:33;15.70;98.70
22544;DHT22;11438;52.044;8.716;2022-10-22T04:11:59;15.60;98.70
22544;DHT22;11438;52.044;8.716;2022-10-22T04:14:24;15.60;98.70
22544;DHT22;11438;52.044;8.716;2022-10-22T04:16:50;15.60;98.70
22544;DHT22;11438;52.044;8.716;2022-10-22T04:19:16;15.60;98.70
22544;DHT22;11438;52.044;8.716;2022-10-22T04:21:42;15.50;98.60
22544;DHT22;11438;52.044;8.716;2022-10-22T04:24:08;15.60;98.70
22544;DHT22;11438;52.044;8.716;2022-10-22T04:26:33;15.50;98.60
22544;DHT22;11438;52.044;8.716;2022-10-22T04:28:59;15.60;98.70
22544;DHT22;11438;52.044;8.716;2022-10-22T04:31:25;15.50;98.70
22544;DHT22;11438;52.044;8.716;2022-10-22T04:33:52;15.50;98.70
22544;DHT22;11438;52.044;8.716;2022-10-22T04:36:18;15.50;98.80
22544;DHT22;11438;52.044;8.716;2022-10-22T04:38:45;15.50;98.80
22544;DHT22;11438;52.044;8.716;2022-10-22T04:41:14;15.50;98.70
22544;DHT22;11438;52.044;8.716;2022-10-22T04:43:41;15.50;98.70
22544;DHT22;11438;52.044;8.716;2022-10-22T04:46:07;15.50;98.80
22544;DHT22;11438;52.044;8.716;2022-10-22T04:48:36;15.40;98.70
22544;DHT22;11438;52.044;8.716;2022-10-22T04:51:03;15.40;98.70
22544;DHT22;11438;52.044;8.716;2022-10-22T04:53:29;15.40;98.70
22544;DHT22;11438;52.044;8.716;2022-10-22T04:56:26;15.40;98.70
22544;DHT22;11438;52.044;8.716;2022-10-22T04:58:56;15.30;98.60
22544;DHT22;11438;52.044;8.716;2022-10-22T05:01:31;15.40;98.60
22544;DHT22;11438;52.044;8.716;2022-10-22T05:03:59;15.30;98.60
22544;DHT22;11438;52.044;8.716;2022-10-22T05:06:26;15.30;98.50
22544;DHT22;11438;52.044;8.716;2022-10-22T05:08:57;15.30;98.50
22544;DHT22;11438;52.044;8.716;2022-10-22T05:11:26;15.20;98.50
22544;DHT22;11438;52.044;8.716;2022-10-22T05:13:56;15.20;98.50
22544;DHT22;11438;52.044;8.716;2022-10-22T05:16:23;15.20;98.50
22544;DHT22;11438;52.044;8.716;2022-10-22T05:18:48;15.20;98.50
22544;DHT22;11438;52.044;8.716;2022-10-22T05:21:17;15.10;98.50
22544;DHT22;11438;52.044;8.716;2022-10-22T05:23:44;15.10;98.50
22544;DHT22;11438;52.044;8.716;2022-10-22T05:26:12;15.10;98.50
22544;DHT22;11438;52.044;8.716;2022-10-22T05:28:38;15.10;98.50
22544;DHT22;11438;52.044;8.716;2022-10-22T05:31:06;15.10;98.50
22544;DHT22;11438;52.044;8.716;2022-10-22T05:33:32;15.10;98.50
22544;DHT22;11438;52.044;8.716;2022-10-22T05:35:59;15.10;98.50
22544;DHT22;11438;52.044;8.716;2022-10-22T05:38:25;15.10;98.40
22544;DHT22;11438;52.044;8.716;2022-10-22T05:41:04;15.10;98.40
22544;DHT22;11438;52.044;8.716;2022-10-22T05:43:30;15.00;98.30
22544;DHT22;11438;52.044;8.716;2022-10-22T05:45:55;15.00;98.40
22544;DHT22;11438;52.044;8.716;2022-10-22T05:48:21;15.00;98.40
22544;DHT22;11438;52.044;8.716;2022-10-22T05:50:47;15.00;98.40
22544;DHT22;11438;52.044;8.716;2022-10-22T05:53:16;14.90;98.40
22544;DHT22;11438;52.044;8.716;2022-10-22T05:55:42;14.90;98.40
22544;DHT22;11438;52.044;8.716;2022-10-22T05:58:08;14.90;98.40
22544;DHT22;11438;52.044;8.716;2022-10-22T06:00:34;14.90;98.50
22544;DHT22;11438;52.044;8.716;2022-10-22T06:03:00;14.90;98.50
22544;DHT22;11438;52.044;8.716;2022-10-22T06:05:25;14.90;98.60
22544;DHT22;11438;52.044;8.716;2022-10-22T06:07:51;14.90;98.60
22544;DHT22;11438;52.044;8.716;2022-10-22T06:10:18;14.90;98.70
22544;DHT22;11438;52.044;8.716;2022-10-22T06:12:46;14.90;98.70
22544;DHT22;11438;52.044;8.716;2022-10-22T06:15:13;14.90;98.70
22544;DHT22;11438;52.044;8.716;2022-10-22T06:17:39;14.90;98.60
22544;DHT22;11438;52.044;8.716;2022-10-22T06:20:06;14.90;98.60
22544;DHT22;11438;52.044;8.716;2022-10-22T06:22:32;15.00;98.70
22544;DHT22;11438;52.044;8.716;2022-10-22T06:24:57;15.00;98.70
22544;DHT22;11438;52.044;8.716;2022-10-22T06:27:23;14.90;98.70
22544;DHT22;11438;52.044;8.716;2022-10-22T06:29:49;14.90;98.70
22544;DHT22;11438;52.044;8.716;2022-10-22T06:32:14;14.90;98.70
22544;DHT22;11438;52.044;8.716;2022-10-22T06:34:40;14.90;98.70
22544;DHT22;11438;52.044;8.716;2022-10-22T06:37:05;14.90;98.80
22544;DHT22;11438;52.044;8.716;2022-10-22T06:39:31;14.90;98.90
22544;DHT22;11438;52.044;8.716;2022-10-22T06:41:56;14.90;99.00
22544;DHT22;11438;52.044;8.716;2022-10-22T06:44:22;14.90;99.00
22544;DHT22;11438;52.044;8.716;2022-10-22T06:46:51;14.90;99.10
22544;DHT22;11438;52.044;8.716;2022-10-22T06:49:18;15.00;99.20
22544;DHT22;11438;52.044;8.716;2022-10-22T06:51:44;14.90;99.20
22544;DHT22;11438;52.044;8.716;2022-10-22T06:54:10;15.00;99.30
22544;DHT22;11438;52.044;8.716;2022-10-22T06:56:36;14.90;99.30
22544;DHT22;11438;52.044;8.716;2022-10-22T06:59:02;14.90;99.30
22544;DHT22;11438;52.044;8.716;2022-10-22T07:01:31;14.90;99.40
22544;DHT22;11438;52.044;8.716;2022-10-22T07:03:57;14.90;99.30
22544;DHT22;11438;52.044;8.716;2022-10-22T07:06:24;15.00;99.40
22544;DHT22;11438;52.044;8.716;2022-10-22T07:08:50;15.00;99.40
22544;DHT22;11438;52.044;8.716;2022-10-22T07:11:16;15.00;99.50
22544;DHT22;11438;52.044;8.716;2022-10-22T07:13:42;15.00;99.60
22544;DHT22;11438;52.044;8.716;2022-10-22T07:16:09;15.10;99.70
22544;DHT22;11438;52.044;8.716;2022-10-22T07:18:36;15.10;99.70
22544;DHT22;11438;52.044;8.716;2022-10-22T07:21:21;15.10;99.90
22544;DHT22;11438;52.044;8.716;2022-10-22T07:23:47;15.10;99.90
22544;DHT22;11438;52.044;8.716;2022-10-22T07:26:14;15.20;99.90
22544;DHT22;11438;52.044;8.716;2022-10-22T07:28:40;15.20;99.90
22544;DHT22;11438;52.044;8.716;2022-10-22T07:31:07;15.30;99.90
22544;DHT22;11438;52.044;8.716;2022-10-22T07:33:33;15.30;99.90
22544;DHT22;11438;52.044;8.716;2022-10-22T07:36:01;15.40;99.90
22544;DHT22;11438;52.044;8.716;2022-10-22T07:38:27;15.40;99.90
22544;DHT22;11438;52.044;8.716;2022-10-22T07:40:53;15.50;99.90
22544;DHT22;11438;52.044;8.716;2022-10-22T07:43:19;15.50;99.90
22544;DHT22;11438;52.044;8.716;2022-10-22T07:45:44;15.50;99.90
22544;DHT22;11438;52.044;8.716;2022-10-22T07:48:10;15.60;99.90
22544;DHT22;11438;52.044;8.716;2022-10-22T07:50:36;15.60;99.90
22544;DHT22;11438;52.044;8.716;2022-10-22T07:53:01;15.70;99.90
22544;DHT22;11438;52.044;8.716;2022-10-22T07:55:27;15.80;99.90
22544;DHT22;11438;52.044;8.716;2022-10-22T07:57:53;15.80;99.90
22544;DHT22;11438;52.044;8.716;2022-10-22T08:00:18;15.80;99.90
22544;DHT22;11438;52.044;8.716;2022-10-22T08:02:44;15.90;99.90
22544;DHT22;11438;52.044;8.716;2022-10-22T08:05:10;16.00;99.90
22544;DHT22;11438;52.044;8.716;2022-10-22T08:07:37;16.00;99.90
22544;DHT22;11438;52.044;8.716;2022-10-22T08:10:03;16.10;99.90
22544;DHT22;11438;52.044;8.716;2022-10-22T08:12:29;16.10;99.90
22544;DHT22;11438;52.044;8.716;2022-10-22T08:14:55;16.20;99.90
22544;DHT22;11438;52.044;8.716;2022-10-22T08:17:20;16.20;99.90
22544;DHT22;11438;52.044;8.716;2022-10-22T08:19:46;16.30;99.90
22544;DHT22;11438;52.044;8.716;2022-10-22T08:22:11;16.40;99.90
22544;DHT22;11438;52.044;8.716;2022-10-22T08:24:37;16.50;99.90
22544;DHT22;11438;52.044;8.716;2022-10-22T08:27:02;16.50;99.90
22544;DHT22;11438;52.044;8.716;2022-10-22T08:29:28;16.50;99.90
22544;DHT22;11438;52.044;8.716;2022-10-22T08:31:53;16.60;99.90
22544;DHT22;11438;52.044;8.716;2022-10-22T08:34:19;16.60;99.90
22544;DHT22;11438;52.044;8.716;2022-10-22T08:36:45;16.70;99.90
22544;DHT22;11438;52.044;8.716;2022-10-22T08:39:11;16.80;99.90
22544;DHT22;11438;52.044;8.716;2022-10-22T08:42:06;16.80;99.90
22544;DHT22;11438;52.044;8.716;2022-10-22T08:45:02;16.90;99.90
22544;DHT22;11438;52.044;8.716;2022-10-22T08:47:49;17.00;99.90
22544;DHT22;11438;52.044;8.716;2022-10-22T08:50:27;17.10;99.90
22544;DHT22;11438;52.044;8.716;2022-10-22T08:52:56;17.20;99.90
22544;DHT22;11438;52.044;8.716;2022-10-22T08:55:24;17.20;99.90
22544;DHT22;11438;52.044;8.716;2022-10-22T09:01:03;17.40;99.90
22544;DHT22;11438;52.044;8.716;2022-10-22T09:03:44;17.50;99.90
22544;DHT22;11438;52.044;8.716;2022-10-22T09:06:26;17.60;99.90
22544;DHT22;11438;52.044;8.716;2022-10-22T09:08:53;17.70;99.90
22544;DHT22;11438;52.044;8.716;2022-10-22T09:11:31;17.80;99.90
22544;DHT22;11438;52.044;8.716;2022-10-22T09:13:58;17.90;99.90
22544;DHT22;11438;52.044;8.716;2022-10-22T09:16:37;18.00;99.90
22544;DHT22;11438;52.044;8.716;2022-10-22T09:19:14;18.10;99.90
22544;DHT22;11438;52.044;8.716;2022-10-22T09:21:45;18.20;99.90
22544;DHT22;11438;52.044;8.716;2022-10-22T09:24:45;18.30;99.90
22544;DHT22;11438;52.044;8.716;2022-10-22T09:27:35;18.30;99.90
22544;DHT22;11438;52.044;8.716;2022-10-22T09:30:00;18.40;99.90
22544;DHT22;11438;52.044;8.716;2022-10-22T09:32:27;18.40;99.90
22544;DHT22;11438;52.044;8.716;2022-10-22T09:34:56;18.50;99.90
22544;DHT22;11438;52.044;8.716;2022-10-22T09:37:25;18.60;99.90
22544;DHT22;11438;52.044;8.716;2022-10-22T09:39:53;18.70;99.90
22544;DHT22;11438;52.044;8.716;2022-10-22T09:42:19;18.70;99.90
22544;DHT22;11438;52.044;8.716;2022-10-22T09:44:58;18.70;99.90
22544;DHT22;11438;52.044;8.716;2022-10-22T09:47:39;18.80;99.90
22544;DHT22;11438;52.044;8.716;2022-10-22T09:52:34;18.90;99.90
22544;DHT22;11438;52.044;8.716;2022-10-22T09:55:16;18.90;99.90
22544;DHT22;11438;52.044;8.716;2022-10-22T09:57:42;18.90;99.90
22544;DHT22;11438;52.044;8.716;2022-10-22T10:00:09;19.00;99.90
22544;DHT22;11438;52.044;8.716;2022-10-22T10:02:39;19.00;99.90
22544;DHT22;11438;52.044;8.716;2022-10-22T10:05:06;19.10;99.90
22544;DHT22;11438;52.044;8.716;2022-10-22T10:07:34;19.10;99.90
22544;DHT22;11438;52.044;8.716;2022-10-22T10:10:00;19.20;99.90
22544;DHT22;11438;52.044;8.716;2022-10-22T10:12:41;19.30;99.90
22544;DHT22;11438;52.044;8.716;2022-10-22T10:15:49;19.30;99.90
22544;DHT22;11438;52.044;8.716;2022-10-22T10:18:50;19.40;99.90
22544;DHT22;11438;52.044;8.716;2022-10-22T10:24:20;19.50;99.90
22544;DHT22;11438;52.044;8.716;2022-10-22T10:29:49;19.60;99.90
22544;DHT22;11438;52.044;8.716;2022-10-22T10:32:34;19.70;99.90
22544;DHT22;11438;52.044;8.716;2022-10-22T10:35:23;19.70;99.90
22544;DHT22;11438;52.044;8.716;2022-10-22T10:38:14;19.80;99.30
22544;DHT22;11438;52.044;8.716;2022-10-22T10:57:15;20.10;98.20
22544;DHT22;11438;52.044;8.716;2022-10-22T11:00:07;20.10;98.20
22544;DHT22;11438;52.044;8.716;2022-10-22T11:05:44;20.30;98.00
22544;DHT22;11438;52.044;8.716;2022-10-22T11:10:51;20.40;97.80
22544;DHT22;11438;52.044;8.716;2022-10-22T11:13:55;20.40;97.20
22544;DHT22;11438;52.044;8.716;2022-10-22T11:24:45;20.60;96.70
22544;DHT22;11438;52.044;8.716;2022-10-22T11:29:49;20.60;96.60
22544;DHT22;11438;52.044;8.716;2022-10-22T11:32:18;20.60;96.30
22544;DHT22;11438;52.044;8.716;2022-10-22T11:34:52;20.60;96.30
22544;DHT22;11438;52.044;8.716;2022-10-22T11:37:20;20.60;96.00
22544;DHT22;11438;52.044;8.716;2022-10-22T11:40:06;20.60;96.40
22544;DHT22;11438;52.044;8.716;2022-10-22T11:42:35;20.60;96.80
22544;DHT22;11438;52.044;8.716;2022-10-22T11:50:50;20.50;96.90
22544;DHT22;11438;52.044;8.716;2022-10-22T11:55:53;20.40;97.20
22544;DHT22;11438;52.044;8.716;2022-10-22T11:58:33;20.40;97.30
22544;DHT22;11438;52.044;8.716;2022-10-22T12:14:23;20.40;97.50
22544;DHT22;11438;52.044;8.716;2022-10-22T12:16:54;20.40;97.60
22544;DHT22;11438;52.044;8.716;2022-10-22T12:19:28;20.40;97.60
22544;DHT22;11438;52.044;8.716;2022-10-22T12:22:16;20.40;97.60
22544;DHT22;11438;52.044;8.716;2022-10-22T12:24:49;20.40;97.50
22544;DHT22;11438;52.044;8.716;2022-10-22T12:27:22;20.40;97.20
22544;DHT22;11438;52.044;8.716;2022-10-22T12:29:48;20.40;97.00
22544;DHT22;11438;52.044;8.716;2022-10-22T12:32:17;20.40;97.10
22544;DHT22;11438;52.044;8.716;2022-10-22T12:34:48;20.40;97.10
22544;DHT22;11438;52.044;8.716;2022-10-22T12:37:14;20.40;96.80
22544;DHT22;11438;52.044;8.716;2022-10-22T12:39:40;20.40;96.80
22544;DHT22;11438;52.044;8.716;2022-10-22T12:42:11;20.40;96.70
22544;DHT22;11438;52.044;8.716;2022-10-22T12:44:37;20.50;96.80
22544;DHT22;11438;52.044;8.716;2022-10-22T12:47:02;20.50;96.80
22544;DHT22;11438;52.044;8.716;2022-10-22T12:49:37;20.50;96.80
22544;DHT22;11438;52.044;8.716;2022-10-22T12:52:06;20.50;96.40
22544;DHT22;11438;52.044;8.716;2022-10-22T12:54:33;20.50;96.20
22544;DHT22;11438;52.044;8.716;2022-10-22T12:57:00;20.50;96.30
22544;DHT22;11438;52.044;8.716;2022-10-22T12:59:34;20.40;96.20
22544;DHT22;11438;52.044;8.716;2022-10-22T13:02:03;20.40;96.00
22544;DHT22;11438;52.044;8.716;2022-10-22T13:04:35;20.40;96.00
22544;DHT22;11438;52.044;8.716;2022-10-22T13:09:40;20.40;96.60
22544;DHT22;11438;52.044;8.716;2022-10-22T13:12:08;20.40;96.60
22544;DHT22;11438;52.044;8.716;2022-10-22T13:14:39;20.40;96.50
22544;DHT22;11438;52.044;8.716;2022-10-22T13:17:20;20.40;96.60
22544;DHT22;11438;52.044;8.716;2022-10-22T13:27:29;20.60;96.10
22544;DHT22;11438;52.044;8.716;2022-10-22T13:29:56;20.60;96.10
22544;DHT22;11438;52.044;8.716;2022-10-22T13:32:31;20.70;96.10
22544;DHT22;11438;52.044;8.716;2022-10-22T13:34:59;20.70;95.80
22544;DHT22;11438;52.044;8.716;2022-10-22T13:37:27;20.80;95.80
22544;DHT22;11438;52.044;8.716;2022-10-22T13:39:53;20.90;95.60
22544;DHT22;11438;52.044;8.716;2022-10-22T13:42:19;20.90;95.50
22544;DHT22;11438;52.044;8.716;2022-10-22T13:44:44;20.90;95.00
22544;DHT22;11438;52.044;8.716;2022-10-22T13:47:27;20.90;95.00
22544;DHT22;11438;52.044;8.716;2022-10-22T13:49:54;20.90;94.90
22544;DHT22;11438;52.044;8.716;2022-10-22T13:52:28;20.90;94.70
22544;DHT22;11438;52.044;8.716;2022-10-22T13:54:56;20.90;94.20
22544;DHT22;11438;52.044;8.716;2022-10-22T13:57:21;20.90;94.60
22544;DHT22;11438;52.044;8.716;2022-10-22T13:59:47;20.90;94.40
22544;DHT22;11438;52.044;8.716;2022-10-22T14:02:13;20.90;94.50
22544;DHT22;11438;52.044;8.716;2022-10-22T14:04:41;20.90;94.40
22544;DHT22;11438;52.044;8.716;2022-10-22T14:07:16;20.90;94.10
22544;DHT22;11438;52.044;8.716;2022-10-22T14:09:42;20.90;94.20
22544;DHT22;11438;52.044;8.716;2022-10-22T14:12:15;20.90;94.30
22544;DHT22;11438;52.044;8.716;2022-10-22T14:14:41;20.90;93.90
22544;DHT22;11438;52.044;8.716;2022-10-22T14:17:14;20.80;93.90
22544;DHT22;11438;52.044;8.716;2022-10-22T14:19:43;20.80;93.80
22544;DHT22;11438;52.044;8.716;2022-10-22T14:22:17;20.80;93.90
22544;DHT22;11438;52.044;8.716;2022-10-22T14:24:44;20.80;94.00
22544;DHT22;11438;52.044;8.716;2022-10-22T14:27:11;20.80;94.00
22544;DHT22;11438;52.044;8.716;2022-10-22T14:29:38;20.70;93.90
22544;DHT22;11438;52.044;8.716;2022-10-22T14:32:11;20.70;93.90
22544;DHT22;11438;52.044;8.716;2022-10-22T14:34:37;20.70;93.60
22544;DHT22;11438;52.044;8.716;2022-10-22T14:37:02;20.70;93.80
22544;DHT22;11438;52.044;8.716;2022-10-22T14:39:28;20.60;93.80
22544;DHT22;11438;52.044;8.716;2022-10-22T14:41:53;20.60;93.90
22544;DHT22;11438;52.044;8.716;2022-10-22T14:44:19;20.70;93.90
22544;DHT22;11438;52.044;8.716;2022-10-22T14:46:44;20.60;93.90
22544;DHT22;11438;52.044;8.716;2022-10-22T14:49:11;20.60;94.10
22544;DHT22;11438;52.044;8.716;2022-10-22T14:51:37;20.60;93.90
22544;DHT22;11438;52.044;8.716;2022-10-22T14:54:02;20.60;93.90
22544;DHT22;11438;52.044;8.716;2022-10-22T14:56:28;20.70;93.90
22544;DHT22;11438;52.044;8.716;2022-10-22T14:58:53;20.60;93.70
22544;DHT22;11438;52.044;8.716;2022-10-22T15:01:19;20.60;93.60
22544;DHT22;11438;52.044;8.716;2022-10-22T15:03:44;20.60;93.60
22544;DHT22;11438;52.044;8.716;2022-10-22T15:06:10;20.60;93.60
22544;DHT22;11438;52.044;8.716;2022-10-22T15:08:36;20.60;93.60
22544;DHT22;11438;52.044;8.716;2022-10-22T15:13:28;20.50;93.80
22544;DHT22;11438;52.044;8.716;2022-10-22T15:15:54;20.50;93.70
22544;DHT22;11438;52.044;8.716;2022-10-22T15:18:20;20.50;93.80
22544;DHT22;11438;52.044;8.716;2022-10-22T15:20:54;20.40;93.90
22544;DHT22;11438;52.044;8.716;2022-10-22T15:23:20;20.40;93.80
22544;DHT22;11438;52.044;8.716;2022-10-22T15:25:45;20.40;93.90
22544;DHT22;11438;52.044;8.716;2022-10-22T15:28:11;20.40;94.00
22544;DHT22;11438;52.044;8.716;2022-10-22T15:30:36;20.40;94.00
22544;DHT22;11438;52.044;8.716;2022-10-22T15:33:02;20.40;93.90
22544;DHT22;11438;52.044;8.716;2022-10-22T15:35:27;20.30;93.90
22544;DHT22;11438;52.044;8.716;2022-10-22T15:37:53;20.30;93.90
22544;DHT22;11438;52.044;8.716;2022-10-22T15:40:18;20.30;93.90
22544;DHT22;11438;52.044;8.716;2022-10-22T15:42:44;20.30;93.90
22544;DHT22;11438;52.044;8.716;2022-10-22T15:45:10;20.30;93.80
22544;DHT22;11438;52.044;8.716;2022-10-22T15:47:36;20.20;93.80
22544;DHT22;11438;52.044;8.716;2022-10-22T15:50:02;20.30;93.90
22544;DHT22;11438;52.044;8.716;2022-10-22T15:52:29;20.20;93.70
22544;DHT22;11438;52.044;8.716;2022-10-22T15:54:55;20.20;93.90
22544;DHT22;11438;52.044;8.716;2022-10-22T15:57:20;20.20;93.90
22544;DHT22;11438;52.044;8.716;2022-10-22T15:59:46;20.20;94.00
22544;DHT22;11438;52.044;8.716;2022-10-22T16:02:17;20.10;93.90
22544;DHT22;11438;52.044;8.716;2022-10-22T16:04:42;20.20;93.70
22544;DHT22;11438;52.044;8.716;2022-10-22T16:07:08;20.10;93.80
22544;DHT22;11438;52.044;8.716;2022-10-22T16:09:33;20.10;94.00
22544;DHT22;11438;52.044;8.716;2022-10-22T16:11:59;20.10;93.90
22544;DHT22;11438;52.044;8.716;2022-10-22T16:14:25;20.10;94.00
22544;DHT22;11438;52.044;8.716;2022-10-22T16:16:54;20.10;94.10
22544;DHT22;11438;52.044;8.716;2022-10-22T16:19:22;20.10;94.10
22544;DHT22;11438;52.044;8.716;2022-10-22T16:21:53;20.00;94.10
22544;DHT22;11438;52.044;8.716;2022-10-22T16:24:19;20.00;94.00
22544;DHT22;11438;52.044;8.716;2022-10-22T16:26:46;20.00;94.00
22544;DHT22;11438;52.044;8.716;2022-10-22T16:29:11;19.90;94.00
22544;DHT22;11438;52.044;8.716;2022-10-22T16:31:38;19.90;94.10
22544;DHT22;11438;52.044;8.716;2022-10-22T16:34:05;19.80;94.10
22544;DHT22;11438;52.044;8.716;2022-10-22T16:36:31;19.80;94.20
22544;DHT22;11438;52.044;8.716;2022-10-22T16:38:56;19.80;94.20
22544;DHT22;11438;52.044;8.716;2022-10-22T16:41:23;19.70;94.10
22544;DHT22;11438;52.044;8.716;2022-10-22T16:43:53;19.60;94.20
22544;DHT22;11438;52.044;8.716;2022-10-22T16:46:20;19.60;94.30
22544;DHT22;11438;52.044;8.716;2022-10-22T16:48:51;19.60;94.40
22544;DHT22;11438;52.044;8.716;2022-10-22T16:51:22;19.50;94.40
22544;DHT22;11438;52.044;8.716;2022-10-22T16:53:50;19.50;94.50
22544;DHT22;11438;52.044;8.716;2022-10-22T16:56:16;19.40;94.50
22544;DHT22;11438;52.044;8.716;2022-10-22T16:58:50;19.40;94.50
22544;DHT22;11438;52.044;8.716;2022-10-22T17:01:17;19.40;94.60
22544;DHT22;11438;52.044;8.716;2022-10-22T17:03:43;19.40;94.60
22544;DHT22;11438;52.044;8.716;2022-10-22T17:06:09;19.30;94.50
22544;DHT22;11438;52.044;8.716;2022-10-22T17:08:37;19.30;94.50
22544;DHT22;11438;52.044;8.716;2022-10-22T17:11:12;19.20;94.50
22544;DHT22;11438;52.044;8.716;2022-10-22T17:13:41;19.20;94.60
22544;DHT22;11438;52.044;8.716;2022-10-22T17:16:10;19.20;94.60